Time;durP1;ratioP1;P1;durP2;ratioP2;P2;SDS_P1;SDS_P2;PMS_P1;PMS_P2;Temp;Humidity;BMP_temperature;BMP_pressure;BME280_temperature;BME280_humidity;BME280_pressure;Samples;Min_cycle;Max_cycle;Signal;HPM_P1;HPM_P2
2022/11/02 00:00:30;;;;;;;14.35;6.80;;;;;;;9.85;70.25;99875.78;4940371;29;20035;-93
2022/11/02 00:02:56;;;;;;;15.93;6.40;;;;;;;9.86;70.61;99905.13;4938048;29;20118;-92
2022/11/02 00:05:24;;;;;;;10.70;5.93;;;;;;;9.67;70.46;99880.44;4938542;29;20115;-92
2022/11/02 00:07:51;;;;;;;9.95;6.70;;;;;;;9.75;70.69;99891.81;4939802;29;20066;-93
2022/11/02 00:10:20;;;;;;;11.25;6.78;;;;;;;9.76;70.99;99888.88;4940176;29;20031;-93
2022/11/02 00:12:46;;;;;;;12.88;6.85;;;;;;;9.65;70.96;99874.50;4939504;29;20086;-92
2022/11/02 00:15:11;;;;;;;9.98;6.50;;;;;;;9.61;70.82;99873.38;4939999;29;20027;-92
2022/11/02 00:17:37;;;;;;;12.30;7.07;;;;;;;9.59;71.06;99882.75;4940074;29;20037;-94
2022/11/02 00:20:03;;;;;;;11.38;6.90;;;;;;;9.64;71.32;99893.56;4939089;29;20027;-92
2022/11/02 00:22:28;;;;;;;12.90;6.47;;;;;;;9.60;70.85;99862.84;4938563;29;20028;-92
2022/11/02 00:24:54;;;;;;;13.52;7.07;;;;;;;9.79;70.37;99885.66;4939070;29;20106;-92
2022/11/02 00:27:20;;;;;;;12.55;7.05;;;;;;;9.83;70.77;99888.69;4939857;29;20027;-93
2022/11/02 00:29:45;;;;;;;14.27;7.47;;;;;;;9.71;71.01;99878.03;4938723;29;20023;-92
2022/11/02 00:32:10;;;;;;;15.82;7.28;;;;;;;9.73;70.62;99878.59;4939903;29;20039;-93
2022/11/02 00:34:36;;;;;;;13.93;6.53;;;;;;;9.71;70.56;99867.28;4937854;29;20410;-92
2022/11/02 00:37:02;;;;;;;11.40;7.05;;;;;;;9.57;70.73;99847.25;4937573;29;20031;-92
2022/11/02 00:39:27;;;;;;;12.07;7.20;;;;;;;9.65;70.97;99882.56;4937750;29;20082;-92
2022/11/02 00:41:53;;;;;;;17.02;6.97;;;;;;;9.62;70.82;99874.19;4939604;29;20564;-92
2022/11/02 00:44:18;;;;;;;11.68;6.75;;;;;;;9.69;70.58;99882.84;4939094;29;20485;-93
2022/11/02 00:46:44;;;;;;;13.02;7.07;;;;;;;9.51;71.00;99865.16;4939402;29;20125;-92
2022/11/02 00:49:09;;;;;;;9.40;6.63;;;;;;;9.41;71.08;99859.66;4939608;29;20490;-93
2022/11/02 00:51:35;;;;;;;10.38;6.38;;;;;;;9.35;71.38;99855.28;4939578;29;20058;-92
2022/11/02 00:54:00;;;;;;;9.13;6.05;;;;;;;9.36;70.97;99859.56;4938230;29;20508;-92
2022/11/02 00:56:28;;;;;;;11.77;6.57;;;;;;;9.33;71.02;99860.09;4939196;29;20038;-92
2022/11/02 00:58:53;;;;;;;12.95;6.88;;;;;;;9.19;71.46;99851.56;4939771;29;20034;-93
2022/11/02 01:01:19;;;;;;;13.25;6.95;;;;;;;9.13;71.46;99849.84;4938650;29;20034;-93
2022/11/02 01:03:44;;;;;;;12.20;7.10;;;;;;;9.17;71.98;99848.31;4938860;29;20046;-92
2022/11/02 01:06:11;;;;;;;11.52;6.93;;;;;;;9.36;71.27;99854.19;4938813;29;20042;-92
2022/11/02 01:08:37;;;;;;;13.02;6.75;;;;;;;9.39;71.57;99877.91;4938210;29;20101;-93
2022/11/02 01:11:16;;;;;;;16.58;7.43;;;;;;;9.26;71.21;99842.28;4938328;29;20027;-92
2022/11/02 01:13:41;;;;;;;13.40;8.45;;;;;;;9.24;70.99;99854.34;4938640;29;20093;-93
2022/11/02 01:16:07;;;;;;;17.80;8.82;;;;;;;9.15;71.66;99842.38;4937888;29;20035;-92
2022/11/02 01:18:36;;;;;;;14.15;8.20;;;;;;;9.17;71.63;99845.63;4938268;29;20023;-92
2022/11/02 01:21:02;;;;;;;14.68;8.07;;;;;;;9.09;71.91;99838.81;4938105;29;20128;-92
2022/11/02 01:23:30;;;;;;;15.40;8.48;;;;;;;9.17;72.24;99853.69;4937479;29;20119;-93
2022/11/02 01:25:56;;;;;;;16.95;8.00;;;;;;;9.19;72.07;99847.00;4938579;29;20024;-92
2022/11/02 01:28:22;;;;;;;22.00;8.57;;;;;;;9.18;71.62;99837.31;4938039;29;20512;-92
2022/11/02 01:30:47;;;;;;;12.35;7.82;;;;;;;9.20;71.92;99837.09;4938566;29;20122;-92
2022/11/02 01:33:13;;;;;;;16.60;8.32;;;;;;;9.28;71.37;99840.16;4938507;29;20034;-93
2022/11/02 01:35:38;;;;;;;18.48;9.52;;;;;;;9.13;71.90;99817.63;4936170;29;20031;-92
2022/11/02 01:38:04;;;;;;;16.55;8.32;;;;;;;9.15;71.85;99837.00;4937975;29;20104;-93
2022/11/02 01:40:36;;;;;;;19.65;8.57;;;;;;;9.12;72.20;99840.19;4938488;29;20045;-93
2022/11/02 01:43:22;;;;;;;12.90;7.90;;;;;;;9.23;71.81;99834.69;4938194;29;20066;-92
2022/11/02 01:45:48;;;;;;;19.98;7.70;;;;;;;9.16;71.83;99841.31;4938151;29;20109;-92
2022/11/02 01:48:17;;;;;;;17.65;8.73;;;;;;;9.18;71.71;99844.56;4939920;29;20033;-92
2022/11/02 01:50:43;;;;;;;15.05;8.25;;;;;;;9.15;71.95;99831.63;4938526;29;20425;-93
2022/11/02 01:53:08;;;;;;;22.58;8.25;;;;;;;9.13;72.25;99839.94;4938012;29;20035;-93
2022/11/02 01:55:34;;;;;;;13.18;7.75;;;;;;;9.06;72.52;99844.66;4938449;29;20027;-93
2022/11/02 01:58:01;;;;;;;27.75;9.45;;;;;;;9.03;72.00;99819.13;4938481;29;20035;-93
2022/11/02 02:00:27;;;;;;;14.15;7.90;;;;;;;8.92;72.50;99820.00;4936622;29;20032;-92
2022/11/02 02:02:59;;;;;;;16.15;8.38;;;;;;;9.05;72.16;99848.44;4936725;29;20034;-92
2022/11/02 02:05:24;;;;;;;16.10;7.80;;;;;;;9.07;71.97;99828.31;4953258;29;20038;-93
2022/11/02 02:07:50;;;;;;;14.35;7.30;;;;;;;9.08;71.98;99843.34;4938055;29;20042;-95
2022/11/02 02:10:16;;;;;;;14.63;7.05;;;;;;;8.98;71.69;99835.16;4938332;29;20086;-94
2022/11/02 02:12:41;;;;;;;12.07;7.53;;;;;;;8.83;71.71;99824.19;4938107;29;20035;-93
2022/11/02 02:15:07;;;;;;;13.07;6.72;;;;;;;8.83;72.11;99838.41;4935764;29;20114;-92
2022/11/02 02:17:50;;;;;;;14.38;7.47;;;;;;;8.89;72.08;99858.13;4938045;29;20038;-93
2022/11/02 02:20:33;;;;;;;10.68;6.90;;;;;;;8.90;72.34;99849.00;4953616;29;20027;-92
2022/11/02 02:23:17;;;;;;;12.02;6.65;;;;;;;8.95;72.25;99848.28;4953087;29;20027;-93
2022/11/02 02:25:52;;;;;;;13.80;6.93;;;;;;;8.83;72.37;99848.34;4951023;29;20578;-93
2022/11/02 02:28:27;;;;;;;20.05;7.60;;;;;;;8.79;72.00;99839.97;4937534;29;20031;-93
2022/11/02 02:30:58;;;;;;;11.95;6.20;;;;;;;8.64;72.40;99824.44;4952896;29;20035;-93
2022/11/02 02:33:26;;;;;;;13.55;6.82;;;;;;;8.74;72.99;99842.59;4934862;29;20027;-92
2022/11/02 02:36:03;;;;;;;11.20;6.47;;;;;;;8.59;72.69;99820.84;4949419;29;20105;-91
2022/11/02 02:38:45;;;;;;;12.57;6.85;;;;;;;8.65;72.71;99831.44;4938889;29;20121;-92
2022/11/02 02:41:23;;;;;;;10.20;6.13;;;;;;;8.64;73.25;99834.38;4937138;29;20123;-92
2022/11/02 02:43:50;;;;;;;9.93;6.90;;;;;;;8.54;73.24;99834.22;4938385;29;20035;-93
2022/11/02 02:46:47;;;;;;;11.02;6.57;;;;;;;8.63;72.96;99844.31;4938454;29;20070;-92
2022/11/02 02:49:21;;;;;;;18.48;7.25;;;;;;;8.46;73.02;99830.03;4927137;29;20043;-92
2022/11/02 02:51:47;;;;;;;13.93;6.80;;;;;;;8.41;73.17;99830.78;4939393;29;20126;-93
2022/11/02 02:54:24;;;;;;;11.43;6.15;;;;;;;8.26;73.08;99825.94;4938512;29;20031;-92
2022/11/02 02:56:51;;;;;;;11.70;6.28;;;;;;;8.21;72.96;99836.56;4938782;29;20069;-93
2022/11/02 02:59:28;;;;;;;13.55;7.30;;;;;;;8.33;72.97;99846.44;4939539;29;20027;-92
2022/11/02 03:01:53;;;;;;;13.48;6.68;;;;;;;8.27;72.64;99838.28;4937836;29;20031;-92
2022/11/02 03:04:19;;;;;;;13.05;6.57;;;;;;;8.32;73.27;99853.66;4938375;29;20023;-92
2022/11/02 03:06:50;;;;;;;13.07;6.88;;;;;;;8.25;73.00;99839.59;4938516;29;20032;-92
2022/11/02 03:09:44;;;;;;;13.70;7.47;;;;;;;8.38;73.17;99867.97;4938274;29;20055;-93
2022/11/02 03:12:27;;;;;;;14.27;6.50;;;;;;;8.40;73.29;99866.66;4954034;29;20126;-93
2022/11/02 03:14:59;;;;;;;13.85;7.40;;;;;;;8.36;72.97;99864.72;4954044;29;20101;-93
2022/11/02 03:17:31;;;;;;;13.35;6.63;;;;;;;8.34;72.97;99862.28;4954658;29;20494;-93
2022/11/02 03:20:33;;;;;;;10.00;6.85;;;;;;;8.30;73.11;99853.91;4954679;29;20046;-93
2022/11/02 03:23:19;;;;;;;12.57;6.72;;;;;;;8.23;72.99;99857.78;4954593;29;20027;-93
2022/11/02 03:26:08;;;;;;;16.48;6.70;;;;;;;8.01;73.29;99831.66;4951184;29;20042;-92
2022/11/02 03:28:50;;;;;;;15.48;7.65;;;;;;;8.18;73.06;99849.66;4922243;29;20039;-92
2022/11/02 03:31:34;;;;;;;12.52;6.72;;;;;;;8.10;73.35;99845.50;4951774;29;20067;-92
2022/11/02 03:34:10;;;;;;;14.27;7.05;;;;;;;7.95;73.25;99834.47;4951128;29;20038;-93
2022/11/02 03:36:39;;;;;;;16.88;6.72;;;;;;;7.82;74.08;99836.41;4954969;28;20046;-92
2022/11/02 03:39:08;;;;;;;12.10;6.78;;;;;;;8.00;73.81;99856.84;4918572;29;20031;-92
2022/11/02 03:41:34;;;;;;;15.23;6.85;;;;;;;7.96;74.19;99839.59;4952571;28;20126;-92
2022/11/02 03:44:10;;;;;;;10.43;6.57;;;;;;;8.02;73.38;99833.28;4938685;29;20028;-93
2022/11/02 03:46:36;;;;;;;11.63;6.28;;;;;;;8.01;73.72;99845.06;4922093;29;20020;-93
2022/11/02 03:49:02;;;;;;;11.75;6.97;;;;;;;7.98;73.69;99836.69;4923144;29;20470;-93
2022/11/02 03:51:27;;;;;;;13.70;6.45;;;;;;;7.94;73.65;99835.53;4938687;29;20027;-93
2022/11/02 03:54:00;;;;;;;17.80;7.60;;;;;;;7.95;73.71;99842.50;4922303;29;20027;-93
2022/11/02 03:56:41;;;;;;;14.32;6.97;;;;;;;7.93;73.87;99833.91;4939268;29;20505;-93
2022/11/02 03:59:12;;;;;;;11.13;6.70;;;;;;;7.88;74.13;99839.97;4930996;29;20059;-96
2022/11/02 04:01:49;;;;;;;15.90;7.88;;;;;;;7.93;73.73;99849.97;4931860;29;20027;-96
2022/11/02 04:04:17;;;;;;;13.52;7.78;;;;;;;7.80;73.58;99833.16;4931731;29;20074;-96
2022/11/02 04:06:43;;;;;;;13.07;6.57;;;;;;;7.89;73.78;99849.66;4947257;29;20043;-96
2022/11/02 04:09:12;;;;;;;11.27;7.07;;;;;;;7.80;73.53;99837.69;4946132;29;20051;-96
2022/11/02 04:14:40;;;;;;;14.15;7.07;;;;;;;7.76;73.80;99832.00;4955095;28;20034;-96
2022/11/02 04:20:14;;;;;;;;;;;;;;;;;;;;;
2022/11/02 04:25:54;;;;;;;16.35;7.95;;;;;;;7.89;73.13;99822.84;4947626;28;20027;-96
2022/11/02 04:28:25;;;;;;;17.95;8.00;;;;;;;7.95;72.72;99835.31;4930486;29;20068;-96
2022/11/02 04:31:02;;;;;;;14.10;7.72;;;;;;;7.83;72.96;99819.25;4929791;28;20023;-96
2022/11/02 04:33:42;;;;;;;15.02;7.60;;;;;;;7.80;73.22;99816.22;4932170;29;20107;-96
2022/11/02 04:36:11;;;;;;;12.73;7.18;;;;;;;8.02;72.98;99841.31;4931893;29;20042;-96
2022/11/02 04:38:42;;;;;;;11.05;6.85;;;;;;;7.81;72.64;99815.19;4929834;28;20016;-95
2022/11/02 04:43:58;;;;;;;21.38;8.15;;;;;;;7.62;73.47;99819.94;4916957;29;20078;-96
2022/11/02 04:46:25;;;;;;;14.70;8.07;;;;;;;7.59;73.42;99807.78;4911901;29;20063;-96
2022/11/02 04:48:51;;;;;;;17.35;9.70;;;;;;;7.51;74.21;99815.41;4911500;29;20040;-95
2022/11/02 04:51:19;;;;;;;14.65;9.20;;;;;;;7.58;74.06;99818.78;4941511;29;20089;-96
2022/11/02 04:53:49;;;;;;;17.45;8.88;;;;;;;7.55;74.26;99821.91;4960176;28;20654;-96
2022/11/02 04:56:18;;;;;;;23.15;9.85;;;;;;;7.47;74.60;99815.88;4960991;28;20067;-96
2022/11/02 04:58:52;;;;;;;15.90;9.15;;;;;;;7.51;74.54;99818.88;4945218;28;20035;-96
2022/11/02 05:01:47;;;;;;;17.70;8.98;;;;;;;7.56;74.22;99813.66;4960035;28;20031;-96
2022/11/02 05:04:20;;;;;;;27.30;15.02;;;;;;;7.59;74.28;99815.84;4956116;28;20051;-96
2022/11/02 05:07:05;;;;;;;;;;;;;;;;;;;;;
2022/11/02 05:09:36;;;;;;;16.77;9.63;;;;;;;7.58;74.26;99810.72;4958878;28;20075;-96
2022/11/02 05:12:10;;;;;;;16.05;9.43;;;;;;;7.60;73.70;99814.78;4955709;28;20047;-96
2022/11/02 05:14:38;;;;;;;22.92;8.85;;;;;;;7.59;73.63;99807.78;4940137;29;20050;-92
2022/11/02 05:17:04;;;;;;;18.98;9.27;;;;;;;7.74;74.07;99844.00;4936464;29;20036;-93
2022/11/02 05:19:29;;;;;;;21.05;9.45;;;;;;;7.75;73.53;99827.69;4939929;29;20106;-92
2022/11/02 05:21:55;;;;;;;29.98;9.60;;;;;;;7.74;73.73;99828.75;4936878;29;20107;-92
2022/11/02 05:24:21;;;;;;;21.90;9.80;;;;;;;7.73;73.72;99828.97;4928138;29;20027;-92
2022/11/02 05:26:48;;;;;;;18.63;9.02;;;;;;;7.83;73.92;99842.56;4920397;29;20548;-93
2022/11/02 05:29:17;;;;;;;17.98;10.05;;;;;;;7.82;73.40;99833.72;4954943;29;20034;-92
2022/11/02 05:31:43;;;;;;;17.65;8.30;;;;;;;7.92;73.23;99838.44;4935755;29;20035;-94
2022/11/02 05:34:09;;;;;;;25.30;9.52;;;;;;;7.92;73.22;99835.78;4936592;29;20487;-93
2022/11/02 05:36:34;;;;;;;18.95;8.35;;;;;;;8.15;72.52;99839.41;4936530;29;20474;-94
2022/11/02 05:39:00;;;;;;;22.27;9.73;;;;;;;8.14;72.12;99843.97;4938467;29;20086;-94
2022/11/02 05:41:25;;;;;;;17.33;8.50;;;;;;;8.23;71.87;99853.22;4938892;29;20484;-94
2022/11/02 05:43:51;;;;;;;17.67;9.48;;;;;;;8.38;71.69;99863.41;4937557;29;20046;-93
2022/11/02 05:46:19;;;;;;;16.52;8.57;;;;;;;8.37;71.66;99859.13;4939752;29;20075;-93
2022/11/02 05:48:45;;;;;;;16.25;8.10;;;;;;;8.47;70.94;99850.47;4940116;29;20035;-92
2022/11/02 05:51:10;;;;;;;20.73;9.63;;;;;;;8.52;71.06;99831.75;4943437;29;20030;-93
2022/11/02 05:53:37;;;;;;;17.95;9.27;;;;;;;8.75;70.85;99862.19;4944308;29;20054;-95
2022/11/02 05:56:04;;;;;;;21.02;9.25;;;;;;;8.63;70.78;99835.41;4938892;29;20414;-93
2022/11/02 05:58:30;;;;;;;14.82;8.95;;;;;;;8.75;70.94;99863.00;4937503;29;20032;-93
2022/11/02 06:00:59;;;;;;;27.50;10.32;;;;;;;8.74;70.38;99853.31;4922444;29;20031;-93
2022/11/02 06:03:30;;;;;;;18.50;10.63;;;;;;;8.74;70.55;99850.63;4940688;29;20030;-95
2022/11/02 06:06:00;;;;;;;17.08;9.23;;;;;;;8.80;70.58;99843.47;4946829;28;20035;-93
2022/11/02 06:08:26;;;;;;;14.40;7.85;;;;;;;8.92;70.31;99854.94;4948602;29;20059;-95
2022/11/02 06:10:51;;;;;;;12.98;6.82;;;;;;;8.95;69.41;99840.22;4939449;29;20079;-95
2022/11/02 06:13:17;;;;;;;15.75;7.30;;;;;;;8.98;69.80;99837.03;4925976;29;20063;-96
2022/11/02 06:15:42;;;;;;;16.33;7.90;;;;;;;9.15;69.91;99845.88;4940012;29;20028;-95
2022/11/02 06:18:08;;;;;;;16.20;6.75;;;;;;;9.31;69.24;99855.75;4924736;29;20035;-92
2022/11/02 06:20:33;;;;;;;21.55;7.57;;;;;;;9.37;69.15;99845.91;4939656;29;20387;-92
2022/11/02 06:22:59;;;;;;;17.77;8.07;;;;;;;9.61;68.55;99845.69;4944208;29;20118;-90
2022/11/02 06:25:30;;;;;;;15.55;8.65;;;;;;;9.70;68.20;99841.47;4956219;29;20069;-94
2022/11/02 06:27:58;;;;;;;14.23;8.35;;;;;;;9.80;67.37;99836.22;4939718;29;20023;-93
2022/11/02 06:30:23;;;;;;;10.55;6.07;;;;;;;9.98;66.42;99848.53;4938259;29;20031;-91
2022/11/02 06:33:10;;;;;;;11.27;6.70;;;;;;;10.10;66.01;99843.78;4923228;29;20042;-92
2022/11/02 06:35:38;;;;;;;15.43;7.00;;;;;;;10.12;65.82;99836.28;4951291;28;20043;-92
2022/11/02 06:38:04;;;;;;;19.83;8.18;;;;;;;10.32;64.97;99851.03;4952264;28;20550;-92
2022/11/02 06:40:29;;;;;;;14.73;7.55;;;;;;;10.36;64.75;99843.28;4938447;29;20138;-91
2022/11/02 06:42:55;;;;;;;15.15;6.90;;;;;;;10.45;64.91;99861.38;4938906;29;20055;-91
2022/11/02 06:45:21;;;;;;;16.30;7.70;;;;;;;10.48;64.84;99849.31;4939149;29;20110;-90
2022/11/02 06:47:47;;;;;;;14.80;6.80;;;;;;;10.71;63.77;99862.41;4939434;29;20039;-91
2022/11/02 06:50:20;;;;;;;12.73;6.60;;;;;;;10.64;64.04;99834.06;4938749;29;20073;-91
2022/11/02 06:52:46;;;;;;;16.40;6.53;;;;;;;10.91;63.18;99855.56;4937859;29;20513;-92
2022/11/02 06:55:14;;;;;;;15.18;6.32;;;;;;;10.90;62.76;99827.00;4939195;29;20039;-91
2022/11/02 06:57:49;;;;;;;11.63;6.22;;;;;;;11.04;62.59;99836.25;4939776;29;20031;-96
2022/11/02 07:00:19;;;;;;;9.95;6.20;;;;;;;11.21;62.27;99840.66;4930156;29;20031;-95
2022/11/02 07:03:01;;;;;;;11.85;5.50;;;;;;;11.29;62.11;99834.78;4941464;29;20101;-94
2022/11/02 07:05:27;;;;;;;14.57;6.30;;;;;;;11.45;61.89;99849.13;4945488;29;20062;-94
2022/11/02 07:07:56;;;;;;;16.83;7.18;;;;;;;11.60;61.48;99851.09;4945605;29;20055;-95
2022/11/02 07:13:43;;;;;;;15.20;7.13;;;;;;;11.90;61.20;99845.03;4959107;29;20050;-96
2022/11/02 07:16:11;;;;;;;19.08;7.53;;;;;;;11.88;60.44;99826.41;4943298;29;20032;-95
2022/11/02 07:18:58;;;;;;;15.95;7.88;;;;;;;12.06;59.90;99832.41;4941917;29;20034;-96
2022/11/02 07:21:27;;;;;;;12.48;7.35;;;;;;;12.31;59.28;99845.13;5002167;23;20050;-96
2022/11/02 07:26:33;;;;;;;24.00;7.70;;;;;;;12.55;58.46;99815.69;5108535;23;20460;-95
2022/11/02 07:28:59;;;;;;;18.73;7.40;;;;;;;12.70;58.24;99822.97;5075718;23;20053;-95
2022/11/02 07:31:31;;;;;;;22.67;7.47;;;;;;;12.77;57.90;99815.41;4982615;28;20101;-93
2022/11/02 07:33:57;;;;;;;12.15;7.93;;;;;;;12.99;57.86;99820.53;5021555;28;20041;-93
2022/11/02 07:36:22;;;;;;;26.05;9.70;;;;;;;13.16;57.34;99825.63;4986217;28;20104;-94
2022/11/02 07:38:54;;;;;;;28.73;15.88;;;;;;;13.27;57.52;99813.69;5003147;28;20033;-96
2022/11/02 07:41:19;;;;;;;22.58;9.10;;;;;;;13.29;56.67;99799.94;4987575;28;20103;-94
2022/11/02 07:43:45;;;;;;;17.83;8.75;;;;;;;13.49;56.70;99805.25;4989465;28;20025;-93
2022/11/02 07:46:13;;;;;;;20.10;8.20;;;;;;;13.67;56.09;99806.50;4987110;28;20026;-92
2022/11/02 07:48:41;;;;;;;16.73;7.60;;;;;;;13.80;55.88;99804.28;4987076;28;20021;-93
2022/11/02 07:51:07;;;;;;;18.25;7.47;;;;;;;13.92;55.18;99802.06;4992599;28;20108;-93
2022/11/02 07:53:51;;;;;;;19.65;7.45;;;;;;;14.01;55.48;99805.81;5009670;28;20021;-92
2022/11/02 07:56:25;;;;;;;16.38;6.75;;;;;;;14.14;54.78;99791.63;5015443;28;20029;-94
2022/11/02 07:58:51;;;;;;;20.33;8.13;;;;;;;14.26;54.50;99804.00;4988964;28;20044;-95
2022/11/02 08:01:19;;;;;;;21.15;7.80;;;;;;;14.35;54.42;99788.75;5002672;28;20030;-92
2022/11/02 08:03:47;;;;;;;13.30;7.78;;;;;;;14.53;53.78;99796.19;4986310;28;20113;-92
2022/11/02 08:06:13;;;;;;;24.65;11.07;;;;;;;14.64;53.44;99786.09;5000236;28;20025;-92
2022/11/02 08:08:42;;;;;;;36.47;18.02;;;;;;;14.78;53.44;99794.38;5003164;28;20420;-93
2022/11/02 08:11:10;;;;;;;25.40;9.15;;;;;;;14.99;52.14;99799.59;4985200;28;20024;-93
2022/11/02 08:13:39;;;;;;;15.55;7.72;;;;;;;15.01;51.04;99778.44;4993849;28;20021;-91
2022/11/02 08:16:11;;;;;;;16.75;7.55;;;;;;;15.11;50.79;99781.03;4989239;28;20025;-91
2022/11/02 08:18:47;;;;;;;30.58;9.20;;;;;;;15.27;50.67;99784.38;4994741;28;20025;-96
2022/11/02 08:25:32;;;;;;;20.77;7.18;;;;;;;15.49;50.35;99783.84;4940926;29;20038;-95
2022/11/02 08:28:12;;;;;;;22.65;8.07;;;;;;;15.63;49.85;99792.88;4948472;29;20067;-96
2022/11/02 08:31:35;;;;;;;19.63;10.87;;;;;;;15.73;49.37;99783.84;5082027;23;20093;-96
2022/11/02 08:35:15;;;;;;;;;;;;;;;;;;;;;
2022/11/02 08:38:41;;;;;;;28.80;13.00;;;;;;;15.85;49.79;99776.03;4935090;29;20059;-96
2022/11/02 08:41:22;;;;;;;23.60;11.75;;;;;;;15.99;49.27;99778.03;4937559;29;20044;-94
2022/11/02 08:44:01;;;;;;;21.83;8.27;;;;;;;16.05;48.25;99768.69;4945619;29;20095;-96
2022/11/02 08:46:31;;;;;;;23.85;9.20;;;;;;;16.21;48.13;99775.53;4942616;29;20031;-96
2022/11/02 08:49:06;;;;;;;17.67;7.43;;;;;;;16.43;47.72;99787.66;4917471;29;20031;-95
2022/11/02 08:52:41;;;;;;;;;;;;;;;;;;;;;
2022/11/02 08:55:46;;;;;;;;;;;;;;;;;;;;;
2022/11/02 08:59:17;;;;;;;;;;;;;;;;;;;;;
2022/11/02 09:02:02;;;;;;;13.55;7.07;;;;;;;16.92;47.00;99762.63;5060648;23;20118;-96
2022/11/02 09:04:35;;;;;;;18.95;8.27;;;;;;;17.09;46.34;99763.94;4963123;28;20035;-96
2022/11/02 09:07:01;;;;;;;18.00;7.20;;;;;;;17.21;46.17;99755.28;4963173;28;20034;-96
2022/11/02 09:09:26;;;;;;;35.47;21.77;;;;;;;17.43;45.13;99751.81;4976281;28;20148;-95
2022/11/02 09:11:52;;;;;;;11.88;6.03;;;;;;;17.64;44.96;99768.50;4979168;28;20085;-95
2022/11/02 09:14:20;;;;;;;17.90;7.50;;;;;;;17.72;45.13;99755.00;4981316;28;20037;-96
2022/11/02 09:16:50;;;;;;;15.00;6.50;;;;;;;17.84;44.58;99751.75;4996107;28;20115;-96
2022/11/02 09:19:15;;;;;;;15.73;7.40;;;;;;;17.96;44.56;99751.22;4981415;28;20029;-95
2022/11/02 09:21:59;;;;;;;12.45;6.93;;;;;;;18.13;43.90;99748.63;4977488;28;20026;-94
2022/11/02 09:24:24;;;;;;;12.20;6.53;;;;;;;18.24;43.63;99749.19;4970364;28;20045;-92
2022/11/02 09:26:56;;;;;;;16.92;6.88;;;;;;;18.29;42.93;99740.88;4956378;28;20418;-92
2022/11/02 09:29:30;;;;;;;19.63;7.05;;;;;;;18.35;43.11;99731.47;4954073;28;20025;-95
2022/11/02 09:31:58;;;;;;;10.48;5.88;;;;;;;18.53;42.90;99735.09;4947777;28;20090;-93
2022/11/02 09:34:24;;;;;;;17.13;6.55;;;;;;;18.60;43.25;99731.13;4951016;28;20026;-92
2022/11/02 09:36:55;;;;;;;13.68;6.00;;;;;;;18.61;42.50;99717.16;4957380;28;20018;-93
2022/11/02 09:53:36;;;;;;;11.32;4.28;;;;;;;19.78;38.26;99725.88;5019184;28;20486;-92
2022/11/02 09:56:29;;;;;;;6.05;2.80;;;;;;;20.03;34.80;99694.19;4988090;28;20046;-95
2022/11/02 10:07:57;;;;;;;8.50;2.70;;;;;;;21.57;30.63;99670.31;5043490;28;20049;-96
2022/11/02 10:15:06;;;;;;;8.82;2.13;;;;;;;22.32;29.83;99660.44;4937348;28;20024;-95
2022/11/02 10:17:49;;;;;;;16.65;3.13;;;;;;;22.53;29.07;99663.09;4890306;29;20122;-92
2022/11/02 10:21:06;;;;;;;5.60;2.13;;;;;;;22.74;28.69;99657.50;4931692;29;20087;-95
2022/11/02 10:24:42;;;;;;;;;;;;;;;;;;;;;
2022/11/02 10:27:36;;;;;;;8.57;2.38;;;;;;;23.07;28.75;99667.59;4923204;29;20119;-93
2022/11/02 10:32:52;;;;;;;9.90;2.72;;;;;;;23.28;28.15;99650.97;5209152;23;20042;-95
2022/11/02 10:36:04;;;;;;;11.00;2.80;;;;;;;23.49;27.65;99662.59;5068814;23;20033;-96
2022/11/02 10:38:51;;;;;;;12.65;7.95;;;;;;;23.53;28.42;99654.44;5025609;28;20128;-96
2022/11/02 10:41:54;;;;;;;8.57;3.05;;;;;;;23.56;27.83;99645.50;4997362;28;20411;-95
2022/11/02 10:44:37;;;;;;;9.40;3.80;;;;;;;23.69;28.29;99652.56;5018904;28;20384;-93
2022/11/02 10:47:15;;;;;;;7.32;2.92;;;;;;;23.66;27.65;99635.94;4985366;28;20511;-95
2022/11/02 10:50:06;;;;;;;10.30;2.97;;;;;;;23.80;28.01;99650.13;4989590;28;20120;-96
2022/11/02 10:52:36;;;;;;;8.05;3.00;;;;;;;23.77;28.00;99637.09;5005944;28;20087;-95
2022/11/02 10:55:07;;;;;;;8.38;3.10;;;;;;;23.96;27.85;99642.72;4975782;28;20036;-96
2022/11/02 10:57:35;;;;;;;;;;;;;;;24.04;27.41;99643.72;4980663;28;20029;-95
2022/11/02 11:00:46;;;;;;;;;;;;;;;;;;;;;
2022/11/02 11:03:23;;;;;;;9.95;3.80;;;;;;;24.09;26.93;99617.88;5028829;28;20050;-94
2022/11/02 11:05:58;;;;;;;;;;;;;;;24.20;27.16;99635.50;4980752;28;20048;-94
2022/11/02 11:08:47;;;;;;;6.22;3.30;;;;;;;24.05;27.15;99615.06;4991528;28;19909;-94
2022/11/02 11:12:01;;;;;;;10.27;2.80;;;;;;;24.04;27.21;99615.41;4973448;28;20053;-95
2022/11/02 11:23:42;;;;;;;8.45;2.90;;;;;;;24.16;26.52;99616.13;5039959;28;20053;-91
2022/11/02 11:26:47;;;;;;;8.57;2.35;;;;;;;24.21;25.15;99615.06;5029073;28;20562;-92
2022/11/02 11:29:30;;;;;;;6.60;2.50;;;;;;;24.19;25.43;99598.91;5018935;28;20146;-94
2022/11/02 11:32:06;;;;;;;;;;;;;;;;;;;;;
2022/11/02 11:37:26;;;;;;;8.80;2.78;;;;;;;24.47;23.97;99608.25;5005161;28;20041;-93
2022/11/02 11:43:13;;;;;;;6.97;2.33;;;;;;;24.35;24.92;99578.84;5012324;28;20032;-94
2022/11/02 11:46:26;;;;;;;9.70;2.50;;;;;;;24.42;24.59;99581.75;4988718;28;20521;-93
2022/11/02 11:49:10;;;;;;;;;;;;;;;;;;;;;
2022/11/02 11:51:48;;;;;;;9.23;2.22;;;;;;;24.38;23.97;99578.13;5014393;28;20037;-93
2022/11/02 11:58:43;;;;;;;;;;;;;;;;;;;;;
2022/11/02 12:08:01;;;;;;;8.43;2.10;;;;;;;24.79;24.30;99575.97;5064002;28;19907;-96
2022/11/02 12:11:17;;;;;;;7.82;2.85;;;;;;;24.77;24.29;99576.31;5049854;28;20025;-96
2022/11/02 12:17:50;;;;;;;9.40;2.42;;;;;;;24.75;24.52;99573.13;5305693;22;20148;-96
2022/11/02 12:20:45;;;;;;;;;;;;;;;;;;;;;
2022/11/02 12:27:32;;;;;;;;;;;;;;;;;;;;;
2022/11/02 12:30:23;;;;;;;8.48;2.28;;;;;;;24.72;25.37;99562.84;4999469;28;20424;-92
2022/11/02 12:33:29;;;;;;;5.88;2.20;;;;;;;24.69;25.62;99563.53;5013649;28;20415;-96
2022/11/02 12:41:37;;;;;;;;;;;;;;;;;;;;;
2022/11/02 12:45:11;;;;;;;6.72;2.38;;;;;;;24.48;25.25;99541.81;5434210;23;20111;-94
2022/11/02 12:51:07;;;;;;;10.05;2.40;;;;;;;24.55;24.87;99549.44;5075851;23;20053;-96
2022/11/02 12:53:41;;;;;;;5.88;2.38;;;;;;;24.60;25.23;99562.97;4934568;29;20055;-93
2022/11/02 12:56:30;;;;;;;;;;;;;;;;;;;;;
2022/11/02 12:59:02;;;;;;;8.07;2.25;;;;;;;24.42;25.28;99532.22;4958274;29;20062;-95
2022/11/02 13:01:56;;;;;;;;;;;;;;;;;;;;;
2022/11/02 13:05:01;;;;;;;7.82;2.47;;;;;;;24.37;26.18;99546.28;5032692;28;20062;-96
2022/11/02 13:08:32;;;;;;;8.07;2.47;;;;;;;24.21;26.37;99541.56;4999162;28;20026;-96
2022/11/02 13:11:15;;;;;;;10.85;3.10;;;;;;;24.28;26.49;99534.63;5005230;28;20046;-94
2022/11/02 13:22:24;;;;;;;9.38;2.75;;;;;;;24.18;26.53;99547.00;4985210;28;20054;-96
2022/11/02 13:25:06;;;;;;;7.75;2.20;;;;;;;24.15;26.53;99536.69;4939225;28;20057;-96
2022/11/02 13:28:10;;;;;;;9.30;2.60;;;;;;;24.14;25.82;99541.41;4960489;28;20412;-92
2022/11/02 13:48:36;;;;;;;;;;;;;;;;;;;;;
2022/11/02 14:05:36;;;;;;;9.27;3.42;;;;;;;23.65;24.49;99533.44;4938526;29;20518;-91
2022/11/02 14:08:08;;;;;;;10.23;2.03;;;;;;;23.59;24.55;99534.84;4903322;29;20079;-92
2022/11/02 14:10:38;;;;;;;7.85;2.20;;;;;;;23.52;24.95;99527.22;4918994;29;20043;-92
2022/11/02 14:13:22;;;;;;;7.03;2.60;;;;;;;23.54;25.35;99527.66;4921433;29;20046;-91
2022/11/02 14:16:13;;;;;;;6.07;2.20;;;;;;;23.51;25.37;99533.88;4923351;29;20031;-90
2022/11/02 14:18:42;;;;;;;6.22;2.35;;;;;;;23.38;25.39;99526.81;4899749;29;20047;-90
2022/11/02 14:21:47;;;;;;;7.90;3.70;;;;;;;23.37;25.78;99539.78;4919589;29;20058;-91
2022/11/02 14:24:39;;;;;;;10.20;2.83;;;;;;;23.39;25.64;99548.47;4953373;29;20058;-92
2022/11/02 14:27:17;;;;;;;6.88;2.92;;;;;;;23.38;25.80;99549.59;4953163;29;20187;-92
2022/11/02 14:29:49;;;;;;;5.45;2.72;;;;;;;23.28;26.35;99547.34;4937587;29;20039;-92
2022/11/02 14:32:14;;;;;;;8.95;2.88;;;;;;;23.19;26.07;99544.75;4932246;29;20058;-91
2022/11/02 14:35:19;;;;;;;6.70;2.85;;;;;;;23.12;27.31;99552.00;4934397;28;20047;-93
2022/11/02 14:38:13;;;;;;;11.30;4.20;;;;;;;22.92;26.52;99535.31;4939319;28;20052;-89
2022/11/02 14:41:01;;;;;;;10.68;3.67;;;;;;;22.95;26.79;99547.53;4977156;28;20038;-90
2022/11/02 14:43:45;;;;;;;8.95;3.83;;;;;;;22.97;26.75;99550.75;4997913;28;20061;-91
2022/11/02 14:46:39;;;;;;;14.65;4.90;;;;;;;22.90;27.30;99553.28;5021461;28;20404;-91
2022/11/02 14:49:04;;;;;;;7.13;3.78;;;;;;;22.67;27.66;99539.25;5013891;28;20030;-90